Coalmont, Indiana
Current Conditions -  °F | °C
As of 5:53 PM on Tuesday 27 Jan 2015 (Local Time) from KHUF Reporting Station
Overcast Overcast  
Wind Chill: 24°   Ceiling: 1300
Heat Index: 30°   Visibility: 8mi
Dew Point: 25°   Wind: 6mph
Humidity: 82%   Direction: 340°NNW
Pressure: 30.2"   Gusts: NA
Location:  39.19°N, 87.23°W
Report Text: KHUF 272253Z 34005KT 8SM BKN013 OVC022 M01/M04 A3020 RMK AO2 SLP233 T10111039
Loading
Personal Weather Stations






























Interactive Weather Map New forecast layout! Learn more

10-Day Weather Forecast

Advertisements
Track Severe Weather on mobile